sensor_id;sensor_type;location;lat;lon;timestamp;temperature;humidity
43541;DHT22;29549;40.386;-3.710;2023-06-04T00:08:42;19.40;65.60
43541;DHT22;29549;40.386;-3.710;2023-06-04T00:18:43;19.30;65.60
43541;DHT22;29549;40.386;-3.710;2023-06-04T00:28:43;19.30;65.30
43541;DHT22;29549;40.386;-3.710;2023-06-04T00:38:44;19.20;64.90
43541;DHT22;29549;40.386;-3.710;2023-06-04T00:48:44;19.20;64.60
43541;DHT22;29549;40.386;-3.710;2023-06-04T00:58:45;19.20;64.80
43541;DHT22;29549;40.386;-3.710;2023-06-04T01:08:49;19.20;64.90
43541;DHT22;29549;40.386;-3.710;2023-06-04T01:18:56;19.20;65.10
43541;DHT22;29549;40.386;-3.710;2023-06-04T01:28:58;19.10;65.40
43541;DHT22;29549;40.386;-3.710;2023-06-04T01:38:59;19.10;65.80
43541;DHT22;29549;40.386;-3.710;2023-06-04T01:49:01;19.00;66.30
43541;DHT22;29549;40.386;-3.710;2023-06-04T01:59:01;19.10;66.50
43541;DHT22;29549;40.386;-3.710;2023-06-04T02:09:02;19.00;66.90
43541;DHT22;29549;40.386;-3.710;2023-06-04T02:19:04;19.00;67.00
43541;DHT22;29549;40.386;-3.710;2023-06-04T02:29:05;19.00;67.10
43541;DHT22;29549;40.386;-3.710;2023-06-04T02:39:05;19.10;67.00
43541;DHT22;29549;40.386;-3.710;2023-06-04T02:49:06;19.10;66.70
43541;DHT22;29549;40.386;-3.710;2023-06-04T02:59:06;19.00;66.50
43541;DHT22;29549;40.386;-3.710;2023-06-04T03:09:09;18.90;66.60
43541;DHT22;29549;40.386;-3.710;2023-06-04T03:19:10;18.90;66.90
43541;DHT22;29549;40.386;-3.710;2023-06-04T03:29:11;18.80;67.00
43541;DHT22;29549;40.386;-3.710;2023-06-04T03:39:12;18.80;67.30
43541;DHT22;29549;40.386;-3.710;2023-06-04T03:49:13;18.70;67.70
43541;DHT22;29549;40.386;-3.710;2023-06-04T03:59:13;18.70;67.10
43541;DHT22;29549;40.386;-3.710;2023-06-04T04:09:14;18.50;66.80
43541;DHT22;29549;40.386;-3.710;2023-06-04T04:19:15;18.50;66.80
43541;DHT22;29549;40.386;-3.710;2023-06-04T04:29:15;18.40;66.90
43541;DHT22;29549;40.386;-3.710;2023-06-04T04:39:16;18.40;66.60
43541;DHT22;29549;40.386;-3.710;2023-06-04T04:49:17;18.20;69.10
43541;DHT22;29549;40.386;-3.710;2023-06-04T04:59:17;17.90;70.40
43541;DHT22;29549;40.386;-3.710;2023-06-04T05:09:18;17.80;70.90
43541;DHT22;29549;40.386;-3.710;2023-06-04T05:19:19;17.70;70.70
43541;DHT22;29549;40.386;-3.710;2023-06-04T05:29:20;17.70;71.00
43541;DHT22;29549;40.386;-3.710;2023-06-04T05:39:21;17.60;71.50
43541;DHT22;29549;40.386;-3.710;2023-06-04T05:49:24;17.70;71.30
43541;DHT22;29549;40.386;-3.710;2023-06-04T05:59:25;17.90;70.20
43541;DHT22;29549;40.386;-3.710;2023-06-04T06:09:26;18.20;68.60
43541;DHT22;29549;40.386;-3.710;2023-06-04T06:19:27;18.30;68.40
43541;DHT22;29549;40.386;-3.710;2023-06-04T06:29:27;18.40;67.40
43541;DHT22;29549;40.386;-3.710;2023-06-04T06:39:28;18.60;66.70
43541;DHT22;29549;40.386;-3.710;2023-06-04T06:49:28;18.80;65.10
43541;DHT22;29549;40.386;-3.710;2023-06-04T06:59:29;18.90;64.70
43541;DHT22;29549;40.386;-3.710;2023-06-04T07:09:30;19.00;64.50
43541;DHT22;29549;40.386;-3.710;2023-06-04T07:19:30;19.00;64.00
43541;DHT22;29549;40.386;-3.710;2023-06-04T07:29:31;19.20;63.50
43541;DHT22;29549;40.386;-3.710;2023-06-04T07:39:31;19.30;63.00
43541;DHT22;29549;40.386;-3.710;2023-06-04T07:49:32;19.50;62.20
43541;DHT22;29549;40.386;-3.710;2023-06-04T07:59:33;19.70;61.40
43541;DHT22;29549;40.386;-3.710;2023-06-04T08:09:33;20.00;60.70
43541;DHT22;29549;40.386;-3.710;2023-06-04T08:19:34;20.10;60.50
43541;DHT22;29549;40.386;-3.710;2023-06-04T08:29:35;20.20;58.90
43541;DHT22;29549;40.386;-3.710;2023-06-04T08:39:37;20.30;58.80
43541;DHT22;29549;40.386;-3.710;2023-06-04T08:49:37;20.40;58.90
43541;DHT22;29549;40.386;-3.710;2023-06-04T08:59:40;20.60;58.60
43541;DHT22;29549;40.386;-3.710;2023-06-04T09:09:42;20.70;58.00
43541;DHT22;29549;40.386;-3.710;2023-06-04T09:19:43;20.90;56.90
43541;DHT22;29549;40.386;-3.710;2023-06-04T09:29:50;21.00;57.20
43541;DHT22;29549;40.386;-3.710;2023-06-04T09:39:54;21.20;56.80
43541;DHT22;29549;40.386;-3.710;2023-06-04T09:49:55;21.30;57.00
43541;DHT22;29549;40.386;-3.710;2023-06-04T09:59:56;21.60;56.60
43541;DHT22;29549;40.386;-3.710;2023-06-04T10:09:57;21.90;54.90
43541;DHT22;29549;40.386;-3.710;2023-06-04T10:19:58;22.20;53.70
43541;DHT22;29549;40.386;-3.710;2023-06-04T10:29:59;22.70;52.30
43541;DHT22;29549;40.386;-3.710;2023-06-04T10:39:59;22.90;52.40
43541;DHT22;29549;40.386;-3.710;2023-06-04T10:50:07;23.00;52.10
43541;DHT22;29549;40.386;-3.710;2023-06-04T11:00:08;23.50;50.90
43541;DHT22;29549;40.386;-3.710;2023-06-04T11:10:11;23.60;50.10
43541;DHT22;29549;40.386;-3.710;2023-06-04T11:20:19;23.90;49.60
43541;DHT22;29549;40.386;-3.710;2023-06-04T11:30:20;24.20;47.80
43541;DHT22;29549;40.386;-3.710;2023-06-04T11:40:20;24.40;47.80
43541;DHT22;29549;40.386;-3.710;2023-06-04T11:50:22;24.70;46.80
43541;DHT22;29549;40.386;-3.710;2023-06-04T12:00:23;24.80;45.90
43541;DHT22;29549;40.386;-3.710;2023-06-04T12:10:24;25.10;45.20
43541;DHT22;29549;40.386;-3.710;2023-06-04T12:30:39;24.50;46.70
43541;DHT22;29549;40.386;-3.710;2023-06-04T12:40:40;25.00;44.50
43541;DHT22;29549;40.386;-3.710;2023-06-04T12:50:41;25.20;43.80
43541;DHT22;29549;40.386;-3.710;2023-06-04T13:00:41;25.40;43.70
43541;DHT22;29549;40.386;-3.710;2023-06-04T13:10:42;25.50;42.10
43541;DHT22;29549;40.386;-3.710;2023-06-04T13:20:42;25.80;41.70
43541;DHT22;29549;40.386;-3.710;2023-06-04T13:30:43;25.60;41.00
43541;DHT22;29549;40.386;-3.710;2023-06-04T13:40:44;25.50;41.20
43541;DHT22;29549;40.386;-3.710;2023-06-04T13:50:45;25.70;42.20
43541;DHT22;29549;40.386;-3.710;2023-06-04T14:00:45;25.60;42.60
43541;DHT22;29549;40.386;-3.710;2023-06-04T14:10:47;25.60;40.70
43541;DHT22;29549;40.386;-3.710;2023-06-04T14:20:47;25.60;41.10
43541;DHT22;29549;40.386;-3.710;2023-06-04T14:30:48;26.00;40.10
43541;DHT22;29549;40.386;-3.710;2023-06-04T14:40:49;25.90;39.90
43541;DHT22;29549;40.386;-3.710;2023-06-04T14:50:49;26.20;38.90
43541;DHT22;29549;40.386;-3.710;2023-06-04T15:00:53;26.50;37.50
43541;DHT22;29549;40.386;-3.710;2023-06-04T15:10:57;26.60;38.20
43541;DHT22;29549;40.386;-3.710;2023-06-04T15:20:58;26.70;37.60
43541;DHT22;29549;40.386;-3.710;2023-06-04T15:30:58;26.70;37.40
43541;DHT22;29549;40.386;-3.710;2023-06-04T15:40:59;26.90;35.00
43541;DHT22;29549;40.386;-3.710;2023-06-04T15:51:00;26.90;35.20
43541;DHT22;29549;40.386;-3.710;2023-06-04T16:01:00;27.10;34.60
43541;DHT22;29549;40.386;-3.710;2023-06-04T16:11:01;26.90;35.40
43541;DHT22;29549;40.386;-3.710;2023-06-04T16:21:02;26.70;36.40
43541;DHT22;29549;40.386;-3.710;2023-06-04T16:31:02;26.60;38.40
43541;DHT22;29549;40.386;-3.710;2023-06-04T16:41:03;26.50;38.50
43541;DHT22;29549;40.386;-3.710;2023-06-04T16:51:03;26.30;38.50
43541;DHT22;29549;40.386;-3.710;2023-06-04T17:01:05;26.30;38.50
43541;DHT22;29549;40.386;-3.710;2023-06-04T17:11:05;26.30;38.70
43541;DHT22;29549;40.386;-3.710;2023-06-04T17:21:06;26.40;38.20
43541;DHT22;29549;40.386;-3.710;2023-06-04T17:31:07;26.30;37.80
43541;DHT22;29549;40.386;-3.710;2023-06-04T17:41:07;26.30;39.60
43541;DHT22;29549;40.386;-3.710;2023-06-04T17:51:10;26.30;40.30
43541;DHT22;29549;40.386;-3.710;2023-06-04T18:01:11;26.20;39.50
43541;DHT22;29549;40.386;-3.710;2023-06-04T18:11:11;26.20;35.40
43541;DHT22;29549;40.386;-3.710;2023-06-04T18:21:12;26.00;35.20
43541;DHT22;29549;40.386;-3.710;2023-06-04T18:31:12;26.00;36.50
43541;DHT22;29549;40.386;-3.710;2023-06-04T18:41:13;25.90;40.60
43541;DHT22;29549;40.386;-3.710;2023-06-04T18:51:15;25.80;40.90
43541;DHT22;29549;40.386;-3.710;2023-06-04T19:01:16;25.60;42.90
43541;DHT22;29549;40.386;-3.710;2023-06-04T19:11:16;25.30;44.60
43541;DHT22;29549;40.386;-3.710;2023-06-04T19:21:17;25.10;44.50
43541;DHT22;29549;40.386;-3.710;2023-06-04T19:31:17;24.80;45.20
43541;DHT22;29549;40.386;-3.710;2023-06-04T19:41:18;24.50;46.50
43541;DHT22;29549;40.386;-3.710;2023-06-04T19:51:19;24.30;46.30
43541;DHT22;29549;40.386;-3.710;2023-06-04T20:01:21;24.20;45.30
43541;DHT22;29549;40.386;-3.710;2023-06-04T20:11:21;24.10;45.80
43541;DHT22;29549;40.386;-3.710;2023-06-04T20:21:23;23.90;46.60
43541;DHT22;29549;40.386;-3.710;2023-06-04T20:31:25;23.80;47.20
43541;DHT22;29549;40.386;-3.710;2023-06-04T20:41:26;23.60;48.20
43541;DHT22;29549;40.386;-3.710;2023-06-04T20:51:27;23.40;49.50
43541;DHT22;29549;40.386;-3.710;2023-06-04T21:01:28;23.30;50.80
43541;DHT22;29549;40.386;-3.710;2023-06-04T21:11:28;23.10;52.20
43541;DHT22;29549;40.386;-3.710;2023-06-04T21:21:29;22.90;53.50
43541;DHT22;29549;40.386;-3.710;2023-06-04T21:31:30;22.60;54.40
43541;DHT22;29549;40.386;-3.710;2023-06-04T21:41:30;22.40;55.10
43541;DHT22;29549;40.386;-3.710;2023-06-04T21:51:31;22.30;55.20
43541;DHT22;29549;40.386;-3.710;2023-06-04T22:01:31;22.20;55.30
43541;DHT22;29549;40.386;-3.710;2023-06-04T22:11:32;22.20;55.60
43541;DHT22;29549;40.386;-3.710;2023-06-04T22:21:33;22.10;55.40
43541;DHT22;29549;40.386;-3.710;2023-06-04T22:31:33;22.10;56.10
43541;DHT22;29549;40.386;-3.710;2023-06-04T22:41:34;21.90;56.20
43541;DHT22;29549;40.386;-3.710;2023-06-04T22:51:35;21.80;56.20
43541;DHT22;29549;40.386;-3.710;2023-06-04T23:01:35;21.80;56.00
43541;DHT22;29549;40.386;-3.710;2023-06-04T23:11:37;21.70;56.10
43541;DHT22;29549;40.386;-3.710;2023-06-04T23:21:37;21.70;56.10
43541;DHT22;29549;40.386;-3.710;2023-06-04T23:31:38;21.60;56.40
43541;DHT22;29549;40.386;-3.710;2023-06-04T23:41:38;21.60;56.70
43541;DHT22;29549;40.386;-3.710;2023-06-04T23:51:39;21.50;56.80
